sensor_id;sensor_type;location;lat;lon;timestamp;temperature;humidity
64705;DHT22;51131;52.298;13.686;2023-07-13T00:01:48;21.70;73.60
64705;DHT22;51131;52.298;13.686;2023-07-13T00:04:17;21.70;73.70
64705;DHT22;51131;52.298;13.686;2023-07-13T00:06:44;22.10;74.20
64705;DHT22;51131;52.298;13.686;2023-07-13T00:09:12;21.70;74.00
64705;DHT22;51131;52.298;13.686;2023-07-13T00:11:40;22.00;74.40
64705;DHT22;51131;52.298;13.686;2023-07-13T00:14:07;21.80;74.20
64705;DHT22;51131;52.298;13.686;2023-07-13T00:16:35;21.70;74.00
64705;DHT22;51131;52.298;13.686;2023-07-13T00:19:02;21.70;74.00
64705;DHT22;51131;52.298;13.686;2023-07-13T00:21:29;21.80;74.10
64705;DHT22;51131;52.298;13.686;2023-07-13T00:23:55;22.00;74.30
64705;DHT22;51131;52.298;13.686;2023-07-13T00:26:22;21.90;74.10
64705;DHT22;51131;52.298;13.686;2023-07-13T07:23:02;21.70;72.80
64705;DHT22;51131;52.298;13.686;2023-07-13T07:25:29;21.90;72.50
64705;DHT22;51131;52.298;13.686;2023-07-13T07:27:58;21.90;73.60
64705;DHT22;51131;52.298;13.686;2023-07-13T07:30:28;21.90;72.30
64705;DHT22;51131;52.298;13.686;2023-07-13T07:32:58;22.00;72.00
64705;DHT22;51131;52.298;13.686;2023-07-13T07:35:26;22.10;71.60
64705;DHT22;51131;52.298;13.686;2023-07-13T07:37:56;22.10;71.70
64705;DHT22;51131;52.298;13.686;2023-07-13T07:40:23;22.10;70.90
64705;DHT22;51131;52.298;13.686;2023-07-13T07:42:53;22.20;71.10
64705;DHT22;51131;52.298;13.686;2023-07-13T07:45:22;22.40;72.10
64705;DHT22;51131;52.298;13.686;2023-07-13T07:47:49;22.20;71.30
64705;DHT22;51131;52.298;13.686;2023-07-13T07:50:16;22.20;72.30
64705;DHT22;51131;52.298;13.686;2023-07-13T07:52:42;22.10;71.80
64705;DHT22;51131;52.298;13.686;2023-07-13T07:55:10;22.20;72.10
64705;DHT22;51131;52.298;13.686;2023-07-13T07:57:40;22.30;72.20
64705;DHT22;51131;52.298;13.686;2023-07-13T08:00:09;22.40;72.30
64705;DHT22;51131;52.298;13.686;2023-07-13T08:02:39;22.20;71.60
64705;DHT22;51131;52.298;13.686;2023-07-13T08:05:27;22.40;72.60
64705;DHT22;51131;52.298;13.686;2023-07-13T08:07:57;22.30;72.00
64705;DHT22;51131;52.298;13.686;2023-07-13T08:10:23;22.10;72.60
64705;DHT22;51131;52.298;13.686;2023-07-13T08:12:50;22.20;72.20
64705;DHT22;51131;52.298;13.686;2023-07-13T08:15:20;22.20;72.90
64705;DHT22;51131;52.298;13.686;2023-07-13T08:17:47;22.50;72.70
64705;DHT22;51131;52.298;13.686;2023-07-13T08:20:14;22.20;72.80
64705;DHT22;51131;52.298;13.686;2023-07-13T08:22:42;22.20;72.90
64705;DHT22;51131;52.298;13.686;2023-07-13T08:25:08;22.20;72.90
64705;DHT22;51131;52.298;13.686;2023-07-13T08:27:35;22.10;73.10
64705;DHT22;51131;52.298;13.686;2023-07-13T08:30:02;22.10;73.50
64705;DHT22;51131;52.298;13.686;2023-07-13T08:32:28;22.20;73.00
64705;DHT22;51131;52.298;13.686;2023-07-13T08:34:55;22.50;73.20
64705;DHT22;51131;52.298;13.686;2023-07-13T08:37:22;22.20;73.50
64705;DHT22;51131;52.298;13.686;2023-07-13T08:39:48;22.20;73.20
64705;DHT22;51131;52.298;13.686;2023-07-13T08:45:12;22.20;73.60
64705;DHT22;51131;52.298;13.686;2023-07-13T08:47:41;22.20;73.50
64705;DHT22;51131;52.298;13.686;2023-07-13T08:50:11;22.20;73.40
64705;DHT22;51131;52.298;13.686;2023-07-13T08:52:40;22.20;73.60
64705;DHT22;51131;52.298;13.686;2023-07-13T08:55:13;22.20;73.20
64705;DHT22;51131;52.298;13.686;2023-07-13T08:57:41;22.10;73.10
64705;DHT22;51131;52.298;13.686;2023-07-13T09:00:09;22.20;73.70
64705;DHT22;51131;52.298;13.686;2023-07-13T09:02:42;22.20;73.50
64705;DHT22;51131;52.298;13.686;2023-07-13T09:05:14;22.10;73.80
64705;DHT22;51131;52.298;13.686;2023-07-13T09:07:58;22.10;73.60
64705;DHT22;51131;52.298;13.686;2023-07-13T09:10:29;22.20;73.60
64705;DHT22;51131;52.298;13.686;2023-07-13T09:13:00;22.10;73.30
64705;DHT22;51131;52.298;13.686;2023-07-13T09:15:35;22.10;73.50
64705;DHT22;51131;52.298;13.686;2023-07-13T09:20:50;22.10;72.80
64705;DHT22;51131;52.298;13.686;2023-07-13T09:23:19;22.10;72.90
64705;DHT22;51131;52.298;13.686;2023-07-13T09:25:47;22.10;72.70
64705;DHT22;51131;52.298;13.686;2023-07-13T09:28:15;22.10;73.40
64705;DHT22;51131;52.298;13.686;2023-07-13T09:33:20;22.10;73.30
64705;DHT22;51131;52.298;13.686;2023-07-13T09:35:47;22.10;72.70
64705;DHT22;51131;52.298;13.686;2023-07-13T09:38:15;22.10;73.10
64705;DHT22;51131;52.298;13.686;2023-07-13T09:43:28;22.10;73.30
64705;DHT22;51131;52.298;13.686;2023-07-13T09:45:55;22.10;73.10
64705;DHT22;51131;52.298;13.686;2023-07-13T09:48:22;22.20;73.70
64705;DHT22;51131;52.298;13.686;2023-07-13T09:50:54;22.10;73.10
64705;DHT22;51131;52.298;13.686;2023-07-13T09:53:21;22.00;73.10
64705;DHT22;51131;52.298;13.686;2023-07-13T09:55:47;22.10;73.10
64705;DHT22;51131;52.298;13.686;2023-07-13T09:58:24;22.10;73.80
64705;DHT22;51131;52.298;13.686;2023-07-13T10:00:56;22.20;73.70
64705;DHT22;51131;52.298;13.686;2023-07-13T10:03:25;22.00;74.00
64705;DHT22;51131;52.298;13.686;2023-07-13T10:05:52;22.00;73.70
64705;DHT22;51131;52.298;13.686;2023-07-13T10:08:29;21.90;73.90
64705;DHT22;51131;52.298;13.686;2023-07-13T10:10:58;22.00;73.80
64705;DHT22;51131;52.298;13.686;2023-07-13T10:13:29;22.00;73.80
64705;DHT22;51131;52.298;13.686;2023-07-13T10:15:57;22.00;73.30
64705;DHT22;51131;52.298;13.686;2023-07-13T10:18:25;22.10;73.50
64705;DHT22;51131;52.298;13.686;2023-07-13T10:21:00;22.00;73.40
64705;DHT22;51131;52.298;13.686;2023-07-13T10:23:55;22.00;74.10
64705;DHT22;51131;52.298;13.686;2023-07-13T10:26:26;22.10;73.70
64705;DHT22;51131;52.298;13.686;2023-07-13T10:28:54;22.00;74.00
64705;DHT22;51131;52.298;13.686;2023-07-13T10:31:22;22.20;74.60
64705;DHT22;51131;52.298;13.686;2023-07-13T10:33:49;22.00;74.10
64705;DHT22;51131;52.298;13.686;2023-07-13T10:36:38;22.20;74.30
64705;DHT22;51131;52.298;13.686;2023-07-13T10:39:07;22.00;74.30
64705;DHT22;51131;52.298;13.686;2023-07-13T10:41:38;22.30;74.40
64705;DHT22;51131;52.298;13.686;2023-07-13T10:44:06;22.00;74.10
64705;DHT22;51131;52.298;13.686;2023-07-13T10:46:37;22.00;74.40
64705;DHT22;51131;52.298;13.686;2023-07-13T10:49:05;22.10;74.30
64705;DHT22;51131;52.298;13.686;2023-07-13T10:51:32;22.00;73.70
64705;DHT22;51131;52.298;13.686;2023-07-13T10:54:14;22.30;74.30
64705;DHT22;51131;52.298;13.686;2023-07-13T10:56:48;21.90;73.70
64705;DHT22;51131;52.298;13.686;2023-07-13T10:59:18;21.90;74.00
64705;DHT22;51131;52.298;13.686;2023-07-13T11:01:58;22.20;74.20
64705;DHT22;51131;52.298;13.686;2023-07-13T11:04:40;21.90;74.10
64705;DHT22;51131;52.298;13.686;2023-07-13T11:07:18;21.90;74.40
64705;DHT22;51131;52.298;13.686;2023-07-13T11:09:48;21.90;74.00
64705;DHT22;51131;52.298;13.686;2023-07-13T11:17:33;21.90;74.10
64705;DHT22;51131;52.298;13.686;2023-07-13T11:27:45;21.90;74.30
64705;DHT22;51131;52.298;13.686;2023-07-13T11:30:20;21.90;74.10
64705;DHT22;51131;52.298;13.686;2023-07-13T11:33:01;21.90;74.00
64705;DHT22;51131;52.298;13.686;2023-07-13T11:35:34;21.90;74.00
64705;DHT22;51131;52.298;13.686;2023-07-13T11:38:01;21.90;74.10
64705;DHT22;51131;52.298;13.686;2023-07-13T11:40:28;21.90;74.30
64705;DHT22;51131;52.298;13.686;2023-07-13T11:43:02;21.90;74.80
64705;DHT22;51131;52.298;13.686;2023-07-13T11:45:33;21.90;74.90
64705;DHT22;51131;52.298;13.686;2023-07-13T11:48:23;21.90;75.00
64705;DHT22;51131;52.298;13.686;2023-07-13T11:50:51;21.90;74.90
64705;DHT22;51131;52.298;13.686;2023-07-13T11:53:19;21.90;74.80
64705;DHT22;51131;52.298;13.686;2023-07-13T11:55:46;22.00;74.30
64705;DHT22;51131;52.298;13.686;2023-07-13T11:58:14;21.90;73.90
64705;DHT22;51131;52.298;13.686;2023-07-13T12:00:41;21.90;74.10
64705;DHT22;51131;52.298;13.686;2023-07-13T12:03:07;22.20;74.40
64705;DHT22;51131;52.298;13.686;2023-07-13T12:05:35;21.90;74.30
64705;DHT22;51131;52.298;13.686;2023-07-13T12:08:09;22.30;74.60
64705;DHT22;51131;52.298;13.686;2023-07-13T12:10:55;21.90;74.10
64705;DHT22;51131;52.298;13.686;2023-07-13T12:13:22;21.90;73.40
64705;DHT22;51131;52.298;13.686;2023-07-13T12:15:49;22.00;73.50
64705;DHT22;51131;52.298;13.686;2023-07-13T12:18:17;21.90;73.20
64705;DHT22;51131;52.298;13.686;2023-07-13T12:20:45;21.90;73.90
64705;DHT22;51131;52.298;13.686;2023-07-13T12:23:20;21.90;73.60
64705;DHT22;51131;52.298;13.686;2023-07-13T12:25:49;21.90;73.70
64705;DHT22;51131;52.298;13.686;2023-07-13T12:30:58;21.90;74.80
64705;DHT22;51131;52.298;13.686;2023-07-13T12:33:27;21.80;74.10
64705;DHT22;51131;52.298;13.686;2023-07-13T12:35:54;21.80;74.40
64705;DHT22;51131;52.298;13.686;2023-07-13T12:38:24;21.80;74.50
64705;DHT22;51131;52.298;13.686;2023-07-13T12:40:51;21.80;74.00
64705;DHT22;51131;52.298;13.686;2023-07-13T12:43:19;21.90;74.80
64705;DHT22;51131;52.298;13.686;2023-07-13T12:46:01;21.90;73.70
64705;DHT22;51131;52.298;13.686;2023-07-13T12:48:28;21.80;73.70
64705;DHT22;51131;52.298;13.686;2023-07-13T12:51:12;21.80;73.70
64705;DHT22;51131;52.298;13.686;2023-07-13T12:53:41;21.80;73.70
64705;DHT22;51131;52.298;13.686;2023-07-13T12:56:08;21.80;74.00
64705;DHT22;51131;52.298;13.686;2023-07-13T12:58:38;21.80;74.00
64705;DHT22;51131;52.298;13.686;2023-07-13T13:01:07;21.80;73.70
64705;DHT22;51131;52.298;13.686;2023-07-13T13:03:35;21.80;74.50
64705;DHT22;51131;52.298;13.686;2023-07-13T13:06:05;22.00;75.20
64705;DHT22;51131;52.298;13.686;2023-07-13T13:08:32;21.80;74.90
64705;DHT22;51131;52.298;13.686;2023-07-13T13:11:00;21.70;74.80
64705;DHT22;51131;52.298;13.686;2023-07-13T13:13:27;21.90;74.90
64705;DHT22;51131;52.298;13.686;2023-07-13T13:15:54;21.70;74.60
64705;DHT22;51131;52.298;13.686;2023-07-13T13:18:22;21.80;75.20
64705;DHT22;51131;52.298;13.686;2023-07-13T13:20:50;21.70;75.10
64705;DHT22;51131;52.298;13.686;2023-07-13T13:23:18;21.70;74.50
64705;DHT22;51131;52.298;13.686;2023-07-13T13:25:45;21.70;74.90
64705;DHT22;51131;52.298;13.686;2023-07-13T13:28:13;21.70;74.90
64705;DHT22;51131;52.298;13.686;2023-07-13T13:30:41;21.70;75.00
64705;DHT22;51131;52.298;13.686;2023-07-13T13:33:12;21.70;75.40
64705;DHT22;51131;52.298;13.686;2023-07-13T13:35:40;21.70;75.70
64705;DHT22;51131;52.298;13.686;2023-07-13T13:38:18;21.70;75.30
64705;DHT22;51131;52.298;13.686;2023-07-13T13:40:45;21.70;75.60
64705;DHT22;51131;52.298;13.686;2023-07-13T13:43:14;21.70;75.40
64705;DHT22;51131;52.298;13.686;2023-07-13T13:45:42;21.70;75.20
64705;DHT22;51131;52.298;13.686;2023-07-13T13:48:18;21.70;75.10
64705;DHT22;51131;52.298;13.686;2023-07-13T13:50:46;21.70;74.90
64705;DHT22;51131;52.298;13.686;2023-07-13T13:53:13;21.70;75.40
64705;DHT22;51131;52.298;13.686;2023-07-13T13:55:40;21.80;75.20
64705;DHT22;51131;52.298;13.686;2023-07-13T13:58:08;21.70;75.30
64705;DHT22;51131;52.298;13.686;2023-07-13T14:00:36;22.10;75.60
64705;DHT22;51131;52.298;13.686;2023-07-13T14:03:08;21.70;75.20
64705;DHT22;51131;52.298;13.686;2023-07-13T14:05:40;21.60;75.20
64705;DHT22;51131;52.298;13.686;2023-07-13T14:08:17;22.20;75.70
64705;DHT22;51131;52.298;13.686;2023-07-13T14:10:49;21.70;75.10
64705;DHT22;51131;52.298;13.686;2023-07-13T14:13:22;21.70;74.80
64705;DHT22;51131;52.298;13.686;2023-07-13T14:15:53;21.70;74.30
64705;DHT22;51131;52.298;13.686;2023-07-13T14:18:20;21.70;74.60
64705;DHT22;51131;52.298;13.686;2023-07-13T14:20:47;21.80;74.90
64705;DHT22;51131;52.298;13.686;2023-07-13T14:23:14;21.70;75.10
64705;DHT22;51131;52.298;13.686;2023-07-13T14:25:42;22.10;75.90
64705;DHT22;51131;52.298;13.686;2023-07-13T14:28:14;22.20;75.90
64705;DHT22;51131;52.298;13.686;2023-07-13T14:30:42;21.70;75.20
64705;DHT22;51131;52.298;13.686;2023-07-13T14:33:10;22.00;75.40
64705;DHT22;51131;52.298;13.686;2023-07-13T14:35:37;21.70;75.60
64705;DHT22;51131;52.298;13.686;2023-07-13T14:38:05;21.60;75.40
64705;DHT22;51131;52.298;13.686;2023-07-13T14:40:34;21.90;75.20
64705;DHT22;51131;52.298;13.686;2023-07-13T14:43:01;21.70;74.90
64705;DHT22;51131;52.298;13.686;2023-07-13T14:45:28;22.20;75.70
64705;DHT22;51131;52.298;13.686;2023-07-13T14:47:55;21.70;75.70
64705;DHT22;51131;52.298;13.686;2023-07-13T14:50:28;22.20;76.10
64705;DHT22;51131;52.298;13.686;2023-07-13T14:52:55;21.70;74.90
64705;DHT22;51131;52.298;13.686;2023-07-13T14:55:22;21.70;74.80
64705;DHT22;51131;52.298;13.686;2023-07-13T14:57:52;22.10;75.80
64705;DHT22;51131;52.298;13.686;2023-07-13T15:00:20;22.10;75.40
64705;DHT22;51131;52.298;13.686;2023-07-13T15:02:49;21.60;75.10
64705;DHT22;51131;52.298;13.686;2023-07-13T15:05:20;21.70;75.60
64705;DHT22;51131;52.298;13.686;2023-07-13T15:07:49;21.70;75.40
64705;DHT22;51131;52.298;13.686;2023-07-13T15:10:26;21.80;75.40
64705;DHT22;51131;52.298;13.686;2023-07-13T15:12:56;21.70;75.30
64705;DHT22;51131;52.298;13.686;2023-07-13T15:15:24;21.60;75.40
64705;DHT22;51131;52.298;13.686;2023-07-13T15:17:51;21.80;75.30
64705;DHT22;51131;52.298;13.686;2023-07-13T15:20:23;21.70;75.30
64705;DHT22;51131;52.298;13.686;2023-07-13T15:22:51;21.70;74.90
64705;DHT22;51131;52.298;13.686;2023-07-13T15:25:19;21.80;75.20
64705;DHT22;51131;52.298;13.686;2023-07-13T15:27:46;21.80;74.80
64705;DHT22;51131;52.298;13.686;2023-07-13T15:30:13;21.70;75.00
64705;DHT22;51131;52.298;13.686;2023-07-13T15:32:42;21.70;75.30
64705;DHT22;51131;52.298;13.686;2023-07-13T15:35:19;21.80;75.70
64705;DHT22;51131;52.298;13.686;2023-07-13T15:37:47;21.70;75.10
64705;DHT22;51131;52.298;13.686;2023-07-13T15:40:14;22.00;75.70
64705;DHT22;51131;52.298;13.686;2023-07-13T15:42:41;21.70;75.10
64705;DHT22;51131;52.298;13.686;2023-07-13T15:45:16;21.80;75.90
64705;DHT22;51131;52.298;13.686;2023-07-13T15:47:43;21.70;75.60
64705;DHT22;51131;52.298;13.686;2023-07-13T15:50:12;22.40;76.20
64705;DHT22;51131;52.298;13.686;2023-07-13T15:52:38;21.70;75.60
64705;DHT22;51131;52.298;13.686;2023-07-13T15:55:07;21.70;75.90
64705;DHT22;51131;52.298;13.686;2023-07-13T15:57:35;21.60;76.00
64705;DHT22;51131;52.298;13.686;2023-07-13T16:00:02;21.70;76.30
64705;DHT22;51131;52.298;13.686;2023-07-13T16:02:29;21.60;76.10
64705;DHT22;51131;52.298;13.686;2023-07-13T16:04:56;21.70;76.20
64705;DHT22;51131;52.298;13.686;2023-07-13T16:07:22;21.60;76.10
64705;DHT22;51131;52.298;13.686;2023-07-13T16:09:49;22.00;76.60
64705;DHT22;51131;52.298;13.686;2023-07-13T16:12:16;21.60;76.40
64705;DHT22;51131;52.298;13.686;2023-07-13T16:14:43;22.10;76.90
64705;DHT22;51131;52.298;13.686;2023-07-13T16:17:11;21.80;75.80
64705;DHT22;51131;52.298;13.686;2023-07-13T16:19:37;22.10;76.00
64705;DHT22;51131;52.298;13.686;2023-07-13T16:22:05;21.60;75.30
64705;DHT22;51131;52.298;13.686;2023-07-13T16:24:32;21.60;75.50
64705;DHT22;51131;52.298;13.686;2023-07-13T16:26:58;21.60;76.10
64705;DHT22;51131;52.298;13.686;2023-07-13T16:29:29;22.10;76.30
64705;DHT22;51131;52.298;13.686;2023-07-13T16:34:24;21.70;76.40
64705;DHT22;51131;52.298;13.686;2023-07-13T16:36:53;21.60;76.40
64705;DHT22;51131;52.298;13.686;2023-07-13T16:39:20;21.60;76.20
64705;DHT22;51131;52.298;13.686;2023-07-13T16:41:53;21.60;76.20
64705;DHT22;51131;52.298;13.686;2023-07-13T16:44:21;21.60;75.90
64705;DHT22;51131;52.298;13.686;2023-07-13T16:46:49;21.50;75.30
64705;DHT22;51131;52.298;13.686;2023-07-13T16:49:21;22.20;76.40
64705;DHT22;51131;52.298;13.686;2023-07-13T16:51:49;21.50;75.80
64705;DHT22;51131;52.298;13.686;2023-07-13T16:54:16;21.80;76.60
64705;DHT22;51131;52.298;13.686;2023-07-13T16:56:45;21.80;76.50
64705;DHT22;51131;52.298;13.686;2023-07-13T16:59:18;21.70;76.50
64705;DHT22;51131;52.298;13.686;2023-07-13T17:01:45;22.00;76.90
64705;DHT22;51131;52.298;13.686;2023-07-13T17:04:18;21.60;76.30
64705;DHT22;51131;52.298;13.686;2023-07-13T17:06:47;21.60;76.50
64705;DHT22;51131;52.298;13.686;2023-07-13T17:09:14;21.50;76.50
64705;DHT22;51131;52.298;13.686;2023-07-13T17:11:41;21.80;76.80
64705;DHT22;51131;52.298;13.686;2023-07-13T17:14:12;21.50;76.60
64705;DHT22;51131;52.298;13.686;2023-07-13T17:16:41;21.50;76.60
64705;DHT22;51131;52.298;13.686;2023-07-13T17:19:11;21.70;76.90
64705;DHT22;51131;52.298;13.686;2023-07-13T17:21:38;21.80;76.80
64705;DHT22;51131;52.298;13.686;2023-07-13T17:24:13;21.70;75.90
64705;DHT22;51131;52.298;13.686;2023-07-13T17:26:41;21.70;71.30
64705;DHT22;51131;52.298;13.686;2023-07-13T17:29:08;22.40;69.40
64705;DHT22;51131;52.298;13.686;2023-07-13T17:31:36;22.20;69.10
64705;DHT22;51131;52.298;13.686;2023-07-13T17:34:03;22.40;68.80
64705;DHT22;51131;52.298;13.686;2023-07-13T17:36:31;22.30;70.30
64705;DHT22;51131;52.298;13.686;2023-07-13T17:39:00;22.10;69.00
64705;DHT22;51131;52.298;13.686;2023-07-13T17:41:30;22.10;68.30
64705;DHT22;51131;52.298;13.686;2023-07-13T17:43:57;22.20;68.50
64705;DHT22;51131;52.298;13.686;2023-07-13T17:46:26;22.20;69.30
64705;DHT22;51131;52.298;13.686;2023-07-13T17:48:54;22.30;67.40
64705;DHT22;51131;52.298;13.686;2023-07-13T17:51:21;22.30;68.40
64705;DHT22;51131;52.298;13.686;2023-07-13T17:53:49;22.30;69.60
64705;DHT22;51131;52.298;13.686;2023-07-13T17:56:16;23.00;71.10
64705;DHT22;51131;52.298;13.686;2023-07-13T17:58:43;22.50;70.70
64705;DHT22;51131;52.298;13.686;2023-07-13T18:01:13;22.30;71.10
64705;DHT22;51131;52.298;13.686;2023-07-13T18:03:41;22.30;71.20
64705;DHT22;51131;52.298;13.686;2023-07-13T18:06:13;22.40;71.30
64705;DHT22;51131;52.298;13.686;2023-07-13T18:08:49;22.60;71.90
64705;DHT22;51131;52.298;13.686;2023-07-13T18:11:16;22.80;72.00
64705;DHT22;51131;52.298;13.686;2023-07-13T18:13:43;22.20;71.60
64705;DHT22;51131;52.298;13.686;2023-07-13T18:16:14;22.30;71.70
64705;DHT22;51131;52.298;13.686;2023-07-13T18:18:42;22.30;72.00
64705;DHT22;51131;52.298;13.686;2023-07-13T18:21:09;22.30;72.10
64705;DHT22;51131;52.298;13.686;2023-07-13T18:23:37;22.30;72.00
64705;DHT22;51131;52.298;13.686;2023-07-13T18:26:04;22.30;71.90
64705;DHT22;51131;52.298;13.686;2023-07-13T18:28:31;22.20;71.60
64705;DHT22;51131;52.298;13.686;2023-07-13T18:30:58;22.30;71.80
64705;DHT22;51131;52.298;13.686;2023-07-13T18:33:26;22.30;71.90
64705;DHT22;51131;52.298;13.686;2023-07-13T18:35:53;22.60;72.30
64705;DHT22;51131;52.298;13.686;2023-07-13T18:38:20;22.50;72.20
64705;DHT22;51131;52.298;13.686;2023-07-13T18:40:48;22.30;71.90
64705;DHT22;51131;52.298;13.686;2023-07-13T18:43:15;22.20;72.10
64705;DHT22;51131;52.298;13.686;2023-07-13T18:45:42;22.40;72.20
64705;DHT22;51131;52.298;13.686;2023-07-13T18:48:10;22.20;72.30
64705;DHT22;51131;52.298;13.686;2023-07-13T18:50:39;22.20;72.30
64705;DHT22;51131;52.298;13.686;2023-07-13T18:53:11;22.20;72.30
64705;DHT22;51131;52.298;13.686;2023-07-13T18:55:37;22.20;72.20
64705;DHT22;51131;52.298;13.686;2023-07-13T18:58:05;22.40;72.50
64705;DHT22;51131;52.298;13.686;2023-07-13T19:00:32;22.10;71.70
64705;DHT22;51131;52.298;13.686;2023-07-13T19:02:59;22.10;71.90
64705;DHT22;51131;52.298;13.686;2023-07-13T19:05:30;22.20;72.10
64705;DHT22;51131;52.298;13.686;2023-07-13T19:08:12;22.40;72.20
64705;DHT22;51131;52.298;13.686;2023-07-13T19:10:40;22.10;72.10
64705;DHT22;51131;52.298;13.686;2023-07-13T19:13:08;22.10;72.20
64705;DHT22;51131;52.298;13.686;2023-07-13T19:15:35;22.20;72.20
64705;DHT22;51131;52.298;13.686;2023-07-13T19:18:11;22.30;72.40
64705;DHT22;51131;52.298;13.686;2023-07-13T19:20:38;22.10;72.30
64705;DHT22;51131;52.298;13.686;2023-07-13T19:23:07;22.10;72.40
64705;DHT22;51131;52.298;13.686;2023-07-13T19:25:37;22.10;72.40
64705;DHT22;51131;52.298;13.686;2023-07-13T19:28:23;22.30;72.70
64705;DHT22;51131;52.298;13.686;2023-07-13T19:30:51;22.10;72.50
64705;DHT22;51131;52.298;13.686;2023-07-13T19:33:17;22.10;72.10
64705;DHT22;51131;52.298;13.686;2023-07-13T19:35:44;22.00;72.00
64705;DHT22;51131;52.298;13.686;2023-07-13T19:38:14;22.30;72.40
64705;DHT22;51131;52.298;13.686;2023-07-13T19:40:41;22.00;72.10
64705;DHT22;51131;52.298;13.686;2023-07-13T19:43:11;22.10;72.10
64705;DHT22;51131;52.298;13.686;2023-07-13T19:45:38;22.10;72.20
64705;DHT22;51131;52.298;13.686;2023-07-13T19:48:04;22.20;72.30
64705;DHT22;51131;52.298;13.686;2023-07-13T19:50:31;22.00;72.30
64705;DHT22;51131;52.298;13.686;2023-07-13T19:52:58;22.10;72.50
64705;DHT22;51131;52.298;13.686;2023-07-13T19:55:26;22.00;72.40
64705;DHT22;51131;52.298;13.686;2023-07-13T19:57:53;22.00;72.10
64705;DHT22;51131;52.298;13.686;2023-07-13T20:00:24;22.20;72.30
64705;DHT22;51131;52.298;13.686;2023-07-13T20:02:51;22.00;72.40
64705;DHT22;51131;52.298;13.686;2023-07-13T20:05:19;22.00;72.30
64705;DHT22;51131;52.298;13.686;2023-07-13T20:07:49;22.00;72.50
64705;DHT22;51131;52.298;13.686;2023-07-13T20:10:19;22.00;72.50
64705;DHT22;51131;52.298;13.686;2023-07-13T20:12:48;22.00;72.40
64705;DHT22;51131;52.298;13.686;2023-07-13T20:15:15;22.00;72.60
64705;DHT22;51131;52.298;13.686;2023-07-13T20:17:42;22.00;72.50
64705;DHT22;51131;52.298;13.686;2023-07-13T20:22:52;22.00;72.30
64705;DHT22;51131;52.298;13.686;2023-07-13T20:25:23;22.00;72.60
64705;DHT22;51131;52.298;13.686;2023-07-13T20:27:52;21.90;72.50
64705;DHT22;51131;52.298;13.686;2023-07-13T20:30:19;21.90;72.70
64705;DHT22;51131;52.298;13.686;2023-07-13T20:32:45;21.90;72.60
64705;DHT22;51131;52.298;13.686;2023-07-13T20:37:48;21.90;72.80
64705;DHT22;51131;52.298;13.686;2023-07-13T20:40:20;21.90;73.00
64705;DHT22;51131;52.298;13.686;2023-07-13T20:42:47;21.90;73.10
64705;DHT22;51131;52.298;13.686;2023-07-13T20:45:14;21.90;73.00
64705;DHT22;51131;52.298;13.686;2023-07-13T20:47:42;21.90;73.10
64705;DHT22;51131;52.298;13.686;2023-07-13T20:50:17;21.90;73.20
64705;DHT22;51131;52.298;13.686;2023-07-13T20:52:44;21.90;73.10
64705;DHT22;51131;52.298;13.686;2023-07-13T20:55:15;21.90;73.10
64705;DHT22;51131;52.298;13.686;2023-07-13T20:57:42;21.90;72.90
64705;DHT22;51131;52.298;13.686;2023-07-13T21:00:13;21.80;72.90
64705;DHT22;51131;52.298;13.686;2023-07-13T21:02:40;21.90;73.60
64705;DHT22;51131;52.298;13.686;2023-07-13T21:05:11;21.80;73.30
64705;DHT22;51131;52.298;13.686;2023-07-13T21:07:39;21.80;73.40
64705;DHT22;51131;52.298;13.686;2023-07-13T21:10:16;21.90;73.30
64705;DHT22;51131;52.298;13.686;2023-07-13T21:12:43;21.70;73.00
64705;DHT22;51131;52.298;13.686;2023-07-13T21:15:09;21.80;73.40
64705;DHT22;51131;52.298;13.686;2023-07-13T21:17:36;21.80;73.40
64705;DHT22;51131;52.298;13.686;2023-07-13T21:20:12;21.80;73.40
64705;DHT22;51131;52.298;13.686;2023-07-13T21:22:39;21.80;72.80
64705;DHT22;51131;52.298;13.686;2023-07-13T21:25:13;21.80;72.70
64705;DHT22;51131;52.298;13.686;2023-07-13T21:27:40;21.80;72.50
64705;DHT22;51131;52.298;13.686;2023-07-13T21:30:11;21.80;72.60
64705;DHT22;51131;52.298;13.686;2023-07-13T21:32:38;21.80;72.60
64705;DHT22;51131;52.298;13.686;2023-07-13T21:35:05;22.00;72.80
64705;DHT22;51131;52.298;13.686;2023-07-13T21:37:33;21.80;72.60
64705;DHT22;51131;52.298;13.686;2023-07-13T21:39:59;21.80;72.70
64705;DHT22;51131;52.298;13.686;2023-07-13T21:42:26;21.90;72.80
64705;DHT22;51131;52.298;13.686;2023-07-13T21:44:53;21.80;73.30
64705;DHT22;51131;52.298;13.686;2023-07-13T21:47:19;21.80;72.60
64705;DHT22;51131;52.298;13.686;2023-07-13T21:49:46;21.80;72.80
64705;DHT22;51131;52.298;13.686;2023-07-13T21:52:17;21.80;72.60
64705;DHT22;51131;52.298;13.686;2023-07-13T21:54:43;21.80;72.70
64705;DHT22;51131;52.298;13.686;2023-07-13T21:57:14;21.80;72.60
64705;DHT22;51131;52.298;13.686;2023-07-13T21:59:42;21.80;72.80
64705;DHT22;51131;52.298;13.686;2023-07-13T22:02:10;21.70;72.70
64705;DHT22;51131;52.298;13.686;2023-07-13T22:04:37;21.70;72.90
64705;DHT22;51131;52.298;13.686;2023-07-13T22:07:04;21.60;72.80
64705;DHT22;51131;52.298;13.686;2023-07-13T22:09:32;21.70;72.90
64705;DHT22;51131;52.298;13.686;2023-07-13T22:11:59;21.90;73.00
64705;DHT22;51131;52.298;13.686;2023-07-13T22:14:25;21.70;73.10
64705;DHT22;51131;52.298;13.686;2023-07-13T22:16:52;21.70;73.40
64705;DHT22;51131;52.298;13.686;2023-07-13T22:19:19;21.70;73.40
64705;DHT22;51131;52.298;13.686;2023-07-13T22:21:46;21.70;73.10
64705;DHT22;51131;52.298;13.686;2023-07-13T22:24:14;21.80;73.00
64705;DHT22;51131;52.298;13.686;2023-07-13T22:26:42;21.70;72.90
64705;DHT22;51131;52.298;13.686;2023-07-13T22:29:13;21.70;73.10
64705;DHT22;51131;52.298;13.686;2023-07-13T22:31:41;21.70;73.10
64705;DHT22;51131;52.298;13.686;2023-07-13T22:34:09;21.70;73.30
64705;DHT22;51131;52.298;13.686;2023-07-13T22:36:36;21.80;73.40
64705;DHT22;51131;52.298;13.686;2023-07-13T22:39:03;21.60;73.30
64705;DHT22;51131;52.298;13.686;2023-07-13T22:41:31;21.70;73.50
64705;DHT22;51131;52.298;13.686;2023-07-13T22:43:58;21.80;73.70
64705;DHT22;51131;52.298;13.686;2023-07-13T22:46:25;21.70;73.40
64705;DHT22;51131;52.298;13.686;2023-07-13T22:48:57;21.70;73.70
64705;DHT22;51131;52.298;13.686;2023-07-13T22:51:24;21.60;73.50
64705;DHT22;51131;52.298;13.686;2023-07-13T22:53:52;21.80;73.40
64705;DHT22;51131;52.298;13.686;2023-07-13T22:56:21;21.70;73.50